createdAt,value
2022-10-04T00:00:08.928Z,4.85
2022-10-04T00:00:19.435Z,4.88
2022-10-04T00:00:29.945Z,4.89
2022-10-04T00:00:40.447Z,4.94
2022-10-04T00:00:50.953Z,4.96
2022-10-04T00:01:01.464Z,5.00
2022-10-04T00:01:11.982Z,5.00
2022-10-04T00:01:22.543Z,5.02
2022-10-04T00:01:33.088Z,5.04
2022-10-04T00:01:43.873Z,5.04
2022-10-04T00:01:54.061Z,5.06
2022-10-04T00:02:04.530Z,5.06
2022-10-04T00:02:15.055Z,5.06
2022-10-04T00:02:25.569Z,5.07
2022-10-04T00:02:36.066Z,5.09
2022-10-04T00:02:46.643Z,5.09
2022-10-04T00:02:57.088Z,5.07
2022-10-04T00:03:07.637Z,5.09
2022-10-04T00:03:18.149Z,5.10
2022-10-04T00:03:28.548Z,5.09
2022-10-04T00:03:39.053Z,5.09
2022-10-04T00:03:49.568Z,5.07
2022-10-04T00:04:00.070Z,5.07
2022-10-04T00:04:10.572Z,5.07
2022-10-04T00:04:21.082Z,5.07
2022-10-04T00:04:31.584Z,5.07
2022-10-04T00:04:42.103Z,5.07
2022-10-04T00:04:52.598Z,5.04
2022-10-04T00:05:03.109Z,5.04
2022-10-04T00:05:13.611Z,5.04
2022-10-04T00:05:24.125Z,5.04
2022-10-04T00:05:34.626Z,5.04
2022-10-04T00:05:45.131Z,5.03
2022-10-04T00:05:55.649Z,5.00
2022-10-04T00:06:06.149Z,5.02
2022-10-04T00:06:16.649Z,5.02
2022-10-04T00:06:27.156Z,5.00
2022-10-04T00:06:37.745Z,5.00
2022-10-04T00:06:48.168Z,4.99
2022-10-04T00:06:58.670Z,4.99
2022-10-04T00:07:09.175Z,4.97
2022-10-04T00:07:19.682Z,4.97
2022-10-04T00:07:30.194Z,4.96
2022-10-04T00:07:40.710Z,4.96
2022-10-04T00:07:51.204Z,4.94
2022-10-04T00:08:01.706Z,4.94
2022-10-04T00:08:12.211Z,4.96
2022-10-04T00:08:22.717Z,4.92
2022-10-04T00:08:33.223Z,4.91
2022-10-04T00:08:43.727Z,4.91
2022-10-04T00:08:54.237Z,4.89
2022-10-04T00:09:04.730Z,4.91
2022-10-04T00:09:15.242Z,4.91
2022-10-04T00:09:25.746Z,4.88
2022-10-04T00:09:36.259Z,4.88
2022-10-04T00:09:46.762Z,4.88
2022-10-04T00:09:57.268Z,4.86
2022-10-04T00:10:07.773Z,4.86
2022-10-04T00:10:18.283Z,4.88
2022-10-04T00:10:28.785Z,4.85
2022-10-04T00:10:39.292Z,4.85
2022-10-04T00:10:49.801Z,4.85
2022-10-04T00:11:00.306Z,4.85
2022-10-04T00:11:10.810Z,4.84
2022-10-04T00:11:21.322Z,4.84
2022-10-04T00:11:31.852Z,4.84
2022-10-04T00:11:42.462Z,4.84
2022-10-04T00:11:52.837Z,4.84
2022-10-04T00:12:03.355Z,4.84
2022-10-04T00:12:13.852Z,4.84
2022-10-04T00:12:24.361Z,4.84
2022-10-04T00:12:34.883Z,4.82
2022-10-04T00:12:45.374Z,4.82
2022-10-04T00:12:55.876Z,4.82
2022-10-04T00:13:06.389Z,4.82
2022-10-04T00:13:16.891Z,4.82
2022-10-04T00:13:27.407Z,4.82
2022-10-04T00:13:37.906Z,4.80
2022-10-04T00:13:48.415Z,4.84
2022-10-04T00:13:58.921Z,4.82
2022-10-04T00:14:09.430Z,4.82
2022-10-04T00:14:19.932Z,4.84
2022-10-04T00:14:30.443Z,4.82
2022-10-04T00:14:40.948Z,4.80
2022-10-04T00:14:51.451Z,4.82
2022-10-04T00:15:01.961Z,4.84
2022-10-04T00:15:12.463Z,4.82
2022-10-04T00:15:23.003Z,4.82
2022-10-04T00:15:33.476Z,4.84
2022-10-04T00:15:44.024Z,4.84
2022-10-04T00:15:54.563Z,4.82
2022-10-04T00:16:05.062Z,4.82
2022-10-04T00:16:15.604Z,4.82
2022-10-04T00:16:26.026Z,4.80
2022-10-04T00:16:36.574Z,4.78
2022-10-04T00:16:47.022Z,4.80
2022-10-04T00:16:57.525Z,4.78
2022-10-04T00:17:08.034Z,4.80
2022-10-04T00:17:18.536Z,4.82
2022-10-04T00:17:29.040Z,4.82
2022-10-04T00:17:39.561Z,4.82
2022-10-04T00:17:50.056Z,4.80
2022-10-04T00:18:00.571Z,4.84
2022-10-04T00:18:11.075Z,4.82
2022-10-04T00:18:21.582Z,4.82
2022-10-04T00:18:32.095Z,4.82
2022-10-04T00:18:42.593Z,4.82
2022-10-04T00:18:53.100Z,4.82
2022-10-04T00:19:03.607Z,4.80
2022-10-04T00:19:14.116Z,4.80
2022-10-04T00:19:24.628Z,4.80
2022-10-04T00:19:35.123Z,4.80
2022-10-04T00:19:45.633Z,4.77
2022-10-04T00:19:56.148Z,4.78
2022-10-04T00:20:06.646Z,4.78
2022-10-04T00:20:17.168Z,4.78
2022-10-04T00:20:27.692Z,4.78
2022-10-04T00:20:38.167Z,4.77
2022-10-04T00:20:48.669Z,4.78
2022-10-04T00:20:59.176Z,4.75
2022-10-04T00:21:09.678Z,4.75
2022-10-04T00:21:20.177Z,4.75
2022-10-04T00:21:30.686Z,4.77
2022-10-04T00:21:41.345Z,4.75
2022-10-04T00:21:51.703Z,4.77
2022-10-04T00:22:02.200Z,4.77
2022-10-04T00:22:12.728Z,4.77
2022-10-04T00:22:23.230Z,4.77
2022-10-04T00:22:33.723Z,4.75
2022-10-04T00:22:44.223Z,4.77
2022-10-04T00:22:54.732Z,4.78
2022-10-04T00:23:05.236Z,4.78
2022-10-04T00:23:15.746Z,4.78
2022-10-04T00:23:26.249Z,4.78
2022-10-04T00:23:36.763Z,4.77
2022-10-04T00:23:47.264Z,4.78
2022-10-04T00:23:57.767Z,4.78
2022-10-04T00:24:08.270Z,4.78
2022-10-04T00:24:18.789Z,4.78
2022-10-04T00:24:29.282Z,4.77
2022-10-04T00:24:39.798Z,4.75
2022-10-04T00:24:50.301Z,4.75
2022-10-04T00:25:00.806Z,4.78
2022-10-04T00:25:11.313Z,4.77
2022-10-04T00:25:21.850Z,4.77
2022-10-04T00:25:32.334Z,4.77
2022-10-04T00:25:42.844Z,4.77
2022-10-04T00:25:53.357Z,4.77
2022-10-04T00:26:03.854Z,4.78
2022-10-04T00:26:14.360Z,4.80
2022-10-04T00:26:24.871Z,4.82
2022-10-04T00:26:35.383Z,4.85
2022-10-04T00:26:45.878Z,4.85
2022-10-04T00:26:56.388Z,4.86
2022-10-04T00:27:06.891Z,4.88
2022-10-04T00:27:17.395Z,4.92
2022-10-04T00:27:27.942Z,4.94
2022-10-04T00:27:38.430Z,4.96
2022-10-04T00:27:48.925Z,5.00
2022-10-04T00:27:59.509Z,5.02
2022-10-04T00:28:09.975Z,5.03
2022-10-04T00:28:20.511Z,5.04
2022-10-04T00:28:31.011Z,5.06
2022-10-04T00:28:41.461Z,5.07
2022-10-04T00:28:51.964Z,5.09
2022-10-04T00:29:02.459Z,5.07
2022-10-04T00:29:12.977Z,5.10
2022-10-04T00:29:23.474Z,5.09
2022-10-04T00:29:33.983Z,5.09
2022-10-04T00:29:44.493Z,5.10
2022-10-04T00:29:55.003Z,5.12
2022-10-04T00:30:05.500Z,5.12
2022-10-04T00:30:16.006Z,5.12
2022-10-04T00:30:26.512Z,5.13
2022-10-04T00:30:37.020Z,5.15
2022-10-04T00:30:47.530Z,5.13
2022-10-04T00:30:58.059Z,5.13
2022-10-04T00:31:08.624Z,5.18
2022-10-04T00:31:19.193Z,5.18
2022-10-04T00:31:29.626Z,5.18
2022-10-04T00:31:40.319Z,5.18
2022-10-04T00:31:50.793Z,5.18
2022-10-04T00:32:01.085Z,5.20
2022-10-04T00:32:11.577Z,5.18
2022-10-04T00:32:22.083Z,5.20
2022-10-04T00:32:32.594Z,5.20
2022-10-04T00:32:43.094Z,5.20
2022-10-04T00:32:53.596Z,5.20
2022-10-04T00:33:04.101Z,5.18
2022-10-04T00:33:14.604Z,5.20
2022-10-04T00:33:25.114Z,5.20
2022-10-04T00:33:35.613Z,5.20
2022-10-04T00:33:46.126Z,5.18
2022-10-04T00:33:56.621Z,5.20
2022-10-04T00:34:07.135Z,5.18
2022-10-04T00:34:17.634Z,5.20
2022-10-04T00:34:30.281Z,5.17
2022-10-04T00:34:38.646Z,5.13
2022-10-04T00:34:49.151Z,5.17
2022-10-04T00:34:59.649Z,5.15
2022-10-04T00:35:10.154Z,5.15
2022-10-04T00:35:20.659Z,5.13
2022-10-04T00:35:31.194Z,5.13
2022-10-04T00:35:41.660Z,5.15
2022-10-04T00:35:52.173Z,5.15
2022-10-04T00:36:02.668Z,5.17
2022-10-04T00:36:13.175Z,5.15
2022-10-04T00:36:23.725Z,5.17
2022-10-04T00:36:34.180Z,5.18
2022-10-04T00:36:44.689Z,5.15
2022-10-04T00:36:55.190Z,5.15
2022-10-04T00:37:05.695Z,5.17
2022-10-04T00:37:16.204Z,5.17
2022-10-04T00:37:26.702Z,5.18
2022-10-04T00:37:37.216Z,5.17
2022-10-04T00:37:47.737Z,5.15
2022-10-04T00:37:58.226Z,5.17
2022-10-04T00:38:08.733Z,5.17
2022-10-04T00:38:19.231Z,5.20
2022-10-04T00:38:29.739Z,5.20
2022-10-04T00:38:40.245Z,5.18
2022-10-04T00:38:50.748Z,5.18
2022-10-04T00:39:01.261Z,5.18
2022-10-04T00:39:11.757Z,5.18
2022-10-04T00:39:22.268Z,5.18
2022-10-04T00:39:32.775Z,5.20
2022-10-04T00:39:43.276Z,5.20
2022-10-04T00:39:53.785Z,5.21
2022-10-04T00:40:04.290Z,5.20
2022-10-04T00:40:14.792Z,5.22
2022-10-04T00:40:25.304Z,5.22
2022-10-04T00:40:35.806Z,5.22
2022-10-04T00:40:46.329Z,5.22
2022-10-04T00:40:56.819Z,5.25
2022-10-04T00:41:07.320Z,5.24
2022-10-04T00:41:17.827Z,5.27
2022-10-04T00:41:28.340Z,5.28
2022-10-04T00:41:38.963Z,5.28
2022-10-04T00:41:49.345Z,5.30
2022-10-04T00:41:59.874Z,5.30
2022-10-04T00:42:10.367Z,5.30
2022-10-04T00:42:20.864Z,5.31
2022-10-04T00:42:31.375Z,5.33
2022-10-04T00:42:41.905Z,5.31
2022-10-04T00:42:52.391Z,5.33
2022-10-04T00:43:02.893Z,5.35
2022-10-04T00:43:13.419Z,5.36
2022-10-04T00:43:23.916Z,5.36
2022-10-04T00:43:34.430Z,5.38
2022-10-04T00:43:44.929Z,5.36
2022-10-04T00:43:55.436Z,5.38
2022-10-04T00:44:05.936Z,5.39
2022-10-04T00:44:16.462Z,5.39
2022-10-04T00:44:26.957Z,5.40
2022-10-04T00:44:37.467Z,5.42
2022-10-04T00:44:47.975Z,5.40
2022-10-04T00:44:58.481Z,5.40
2022-10-04T00:45:08.985Z,5.43
2022-10-04T00:45:19.496Z,5.43
2022-10-04T00:45:30.000Z,5.45
2022-10-04T00:45:40.516Z,5.43
2022-10-04T00:45:51.053Z,5.45
2022-10-04T00:46:01.625Z,5.43
2022-10-04T00:46:12.063Z,5.42
2022-10-04T00:46:22.680Z,5.45
2022-10-04T00:46:33.113Z,5.43
2022-10-04T00:46:43.553Z,5.43
2022-10-04T00:46:54.085Z,5.45
2022-10-04T00:47:04.562Z,5.45
2022-10-04T00:47:15.079Z,5.43
2022-10-04T00:47:25.579Z,5.46
2022-10-04T00:47:36.092Z,5.45
2022-10-04T00:47:46.601Z,5.45
2022-10-04T00:47:57.102Z,5.46
2022-10-04T00:48:07.644Z,5.45
2022-10-04T00:48:18.104Z,5.48
2022-10-04T00:48:31.467Z,5.48
2022-10-04T00:48:39.131Z,5.48
2022-10-04T00:48:49.636Z,5.46
2022-10-04T00:49:00.129Z,5.43
2022-10-04T00:49:10.638Z,5.46
2022-10-04T00:49:21.137Z,5.48
2022-10-04T00:49:31.654Z,5.48
2022-10-04T00:49:42.158Z,5.48
2022-10-04T00:49:52.662Z,5.48
2022-10-04T00:50:03.162Z,5.46
2022-10-04T00:50:13.669Z,5.46
2022-10-04T00:50:24.181Z,5.46
2022-10-04T00:50:34.680Z,5.48
2022-10-04T00:50:45.190Z,5.48
2022-10-04T00:50:55.693Z,5.49
2022-10-04T00:51:06.205Z,5.49
2022-10-04T00:51:16.706Z,5.51
2022-10-04T00:51:27.218Z,5.51
2022-10-04T00:51:37.719Z,5.53
2022-10-04T00:51:48.226Z,5.54
2022-10-04T00:51:58.731Z,5.54
2022-10-04T00:52:09.239Z,5.56
2022-10-04T00:52:19.744Z,5.57
2022-10-04T00:52:30.258Z,5.57
2022-10-04T00:52:40.766Z,5.56
2022-10-04T00:52:51.267Z,5.57
2022-10-04T00:53:01.774Z,5.58
2022-10-04T00:53:12.302Z,5.60
2022-10-04T00:53:22.782Z,5.60
2022-10-04T00:53:33.290Z,5.61
2022-10-04T00:53:43.840Z,5.58
2022-10-04T00:53:54.300Z,5.61
2022-10-04T00:54:04.815Z,5.61
2022-10-04T00:54:15.316Z,5.60
2022-10-04T00:54:25.826Z,5.61
2022-10-04T00:54:36.330Z,5.61
2022-10-04T00:54:46.834Z,5.65
2022-10-04T00:54:57.340Z,5.64
2022-10-04T00:55:07.850Z,5.64
2022-10-04T00:55:18.356Z,5.67
2022-10-04T00:55:28.865Z,5.68
2022-10-04T00:55:39.364Z,5.68
2022-10-04T00:55:49.876Z,5.68
2022-10-04T00:56:00.383Z,5.72
2022-10-04T00:56:10.883Z,5.71
2022-10-04T00:56:21.391Z,5.71
2022-10-04T00:56:31.897Z,5.72
2022-10-04T00:56:42.409Z,5.71
2022-10-04T00:56:52.910Z,5.72
2022-10-04T00:57:03.431Z,5.74
2022-10-04T00:57:13.926Z,5.74
2022-10-04T00:57:24.431Z,5.74
2022-10-04T00:57:34.940Z,5.74
2022-10-04T00:57:45.462Z,5.75
2022-10-04T00:57:55.945Z,5.74
2022-10-04T00:58:06.458Z,5.75
2022-10-04T00:58:16.964Z,5.76
2022-10-04T00:58:27.474Z,5.76
2022-10-04T00:58:37.975Z,5.75
2022-10-04T00:58:48.523Z,5.78
2022-10-04T00:58:58.989Z,5.76
2022-10-04T00:59:09.497Z,5.78
2022-10-04T00:59:20.028Z,5.78
2022-10-04T00:59:30.509Z,5.76
2022-10-04T00:59:41.008Z,5.75
2022-10-04T00:59:51.515Z,5.76
2022-10-04T01:00:02.026Z,5.76
2022-10-04T01:00:12.534Z,5.78
2022-10-04T01:00:23.037Z,5.76
2022-10-04T01:00:33.542Z,5.75
2022-10-04T01:00:44.155Z,5.75
2022-10-04T01:00:54.618Z,5.75
2022-10-04T01:01:05.168Z,5.75
2022-10-04T01:01:15.710Z,5.75
2022-10-04T01:01:26.176Z,5.74
2022-10-04T01:01:36.585Z,5.72
2022-10-04T01:01:47.119Z,5.72
2022-10-04T01:01:57.645Z,5.71
2022-10-04T01:02:08.219Z,5.72
2022-10-04T01:02:18.782Z,5.71
2022-10-04T01:02:29.188Z,5.71
2022-10-04T01:02:39.742Z,5.71
2022-10-04T01:02:50.163Z,5.68
2022-10-04T01:03:00.645Z,5.71
2022-10-04T01:03:11.148Z,5.68
2022-10-04T01:03:21.652Z,5.71
2022-10-04T01:03:32.167Z,5.68
2022-10-04T01:03:42.673Z,5.71
2022-10-04T01:03:53.180Z,5.71
2022-10-04T01:04:03.672Z,5.68
2022-10-04T01:04:14.173Z,5.67
2022-10-04T01:04:24.690Z,5.71
2022-10-04T01:04:35.188Z,5.68
2022-10-04T01:04:45.695Z,5.72
2022-10-04T01:04:56.253Z,5.71
2022-10-04T01:05:06.706Z,5.68
2022-10-04T01:05:17.212Z,5.72
2022-10-04T01:05:27.740Z,5.71
2022-10-04T01:05:38.231Z,5.68
2022-10-04T01:05:48.735Z,5.68
2022-10-04T01:05:59.231Z,5.72
2022-10-04T01:06:09.743Z,5.71
2022-10-04T01:06:20.244Z,5.68
2022-10-04T01:06:30.750Z,5.68
2022-10-04T01:06:41.264Z,5.67
2022-10-04T01:06:51.794Z,5.67
2022-10-04T01:07:02.270Z,5.68
2022-10-04T01:07:12.787Z,5.67
2022-10-04T01:07:23.283Z,5.67
2022-10-04T01:07:33.792Z,5.67
2022-10-04T01:07:44.290Z,5.67
2022-10-04T01:07:54.797Z,5.67
2022-10-04T01:08:05.303Z,5.67
2022-10-04T01:08:15.814Z,5.67
2022-10-04T01:08:26.321Z,5.65
2022-10-04T01:08:36.817Z,5.64
2022-10-04T01:08:47.321Z,5.64
2022-10-04T01:08:57.845Z,5.65
2022-10-04T01:09:08.339Z,5.65
2022-10-04T01:09:18.855Z,5.64
2022-10-04T01:09:29.349Z,5.64
2022-10-04T01:09:39.856Z,5.64
2022-10-04T01:09:50.367Z,5.63
2022-10-04T01:10:00.866Z,5.63
2022-10-04T01:10:11.370Z,5.63
2022-10-04T01:10:21.874Z,5.63
2022-10-04T01:10:32.408Z,5.63
2022-10-04T01:10:42.899Z,5.61
2022-10-04T01:10:53.395Z,5.63
2022-10-04T01:11:03.897Z,5.63
2022-10-04T01:11:14.405Z,5.63
2022-10-04T01:11:24.909Z,5.61
2022-10-04T01:11:35.410Z,5.61
2022-10-04T01:11:45.918Z,5.63
2022-10-04T01:11:56.425Z,5.63
2022-10-04T01:12:06.931Z,5.63
2022-10-04T01:12:17.433Z,5.63
2022-10-04T01:12:27.951Z,5.64
2022-10-04T01:12:38.452Z,5.64
2022-10-04T01:12:48.973Z,5.63
2022-10-04T01:12:59.461Z,5.64
2022-10-04T01:13:09.964Z,5.63
2022-10-04T01:13:20.468Z,5.63
2022-10-04T01:13:30.978Z,5.64
2022-10-04T01:13:41.482Z,5.64
2022-10-04T01:13:51.984Z,5.63
2022-10-04T01:14:02.493Z,5.64
2022-10-04T01:14:12.999Z,5.63
2022-10-04T01:14:23.505Z,5.63
2022-10-04T01:14:34.015Z,5.64
2022-10-04T01:14:44.515Z,5.61
2022-10-04T01:14:55.021Z,5.63
2022-10-04T01:15:05.537Z,5.63
2022-10-04T01:15:16.032Z,5.61
2022-10-04T01:15:26.534Z,5.60
2022-10-04T01:15:37.163Z,5.61
2022-10-04T01:15:47.599Z,5.63
2022-10-04T01:15:58.099Z,5.61
2022-10-04T01:16:08.616Z,5.61
2022-10-04T01:16:19.139Z,5.63
2022-10-04T01:16:29.688Z,5.61
2022-10-04T01:16:40.079Z,5.61
2022-10-04T01:16:50.591Z,5.63
2022-10-04T01:17:01.092Z,5.63
2022-10-04T01:17:11.599Z,5.64
2022-10-04T01:17:22.122Z,5.65
2022-10-04T01:17:32.618Z,5.67
2022-10-04T01:17:43.129Z,5.67
2022-10-04T01:17:53.629Z,5.68
2022-10-04T01:18:07.427Z,5.68
2022-10-04T01:18:15.644Z,5.71
2022-10-04T01:18:25.147Z,5.72
2022-10-04T01:18:35.654Z,5.74
2022-10-04T01:18:46.160Z,5.76
2022-10-04T01:18:56.668Z,5.76
2022-10-04T01:19:07.180Z,5.78
2022-10-04T01:19:17.707Z,5.78
2022-10-04T01:19:28.191Z,5.81
2022-10-04T01:19:38.702Z,5.81
2022-10-04T01:19:49.199Z,5.82
2022-10-04T01:19:59.711Z,5.83
2022-10-04T01:20:10.218Z,5.85
2022-10-04T01:20:20.720Z,5.85
2022-10-04T01:20:31.229Z,5.85
2022-10-04T01:20:48.364Z,5.89
2022-10-04T01:20:52.235Z,5.89
2022-10-04T01:21:02.745Z,5.91
2022-10-04T01:21:13.243Z,5.91
2022-10-04T01:21:23.779Z,5.93
2022-10-04T01:21:34.252Z,5.91
2022-10-04T01:21:44.763Z,5.93
2022-10-04T01:21:55.271Z,5.94
2022-10-04T01:22:05.774Z,5.94
2022-10-04T01:22:16.274Z,5.93
2022-10-04T01:22:26.780Z,5.90
2022-10-04T01:22:37.284Z,5.93
2022-10-04T01:22:47.797Z,5.91
2022-10-04T01:22:58.297Z,5.90
2022-10-04T01:23:08.805Z,5.89
2022-10-04T01:23:19.310Z,5.89
2022-10-04T01:23:29.819Z,5.89
2022-10-04T01:23:40.318Z,5.89
2022-10-04T01:23:50.838Z,5.85
2022-10-04T01:24:01.330Z,5.86
2022-10-04T01:24:11.843Z,5.86
2022-10-04T01:24:22.349Z,5.86
2022-10-04T01:24:32.893Z,5.85
2022-10-04T01:24:43.360Z,5.85
2022-10-04T01:24:53.864Z,5.83
2022-10-04T01:25:04.376Z,5.85
2022-10-04T01:25:14.882Z,5.85
2022-10-04T01:25:25.389Z,5.83
2022-10-04T01:25:35.894Z,5.83
2022-10-04T01:25:46.431Z,5.82
2022-10-04T01:25:56.908Z,5.83
2022-10-04T01:26:07.410Z,5.82
2022-10-04T01:26:17.925Z,5.82
2022-10-04T01:26:28.430Z,5.81
2022-10-04T01:26:38.929Z,5.83
2022-10-04T01:26:49.431Z,5.82
2022-10-04T01:26:59.948Z,5.81
2022-10-04T01:27:10.443Z,5.82
2022-10-04T01:27:20.951Z,5.81
2022-10-04T01:27:31.451Z,5.79
2022-10-04T01:27:41.959Z,5.81
2022-10-04T01:27:52.526Z,5.81
2022-10-04T01:28:03.044Z,5.81
2022-10-04T01:28:13.567Z,5.79
2022-10-04T01:28:24.048Z,5.79
2022-10-04T01:28:34.560Z,5.79
2022-10-04T01:28:45.009Z,5.79
2022-10-04T01:28:55.496Z,5.81
2022-10-04T01:29:06.032Z,5.79
2022-10-04T01:29:16.516Z,5.78
2022-10-04T01:29:27.020Z,5.79
2022-10-04T01:29:37.522Z,5.76
2022-10-04T01:29:48.047Z,5.78
2022-10-04T01:29:58.534Z,5.79
2022-10-04T01:30:09.044Z,5.78
2022-10-04T01:30:19.554Z,5.81
2022-10-04T01:30:30.061Z,5.82
2022-10-04T01:30:40.566Z,5.83
2022-10-04T01:30:51.067Z,5.85
2022-10-04T01:31:01.651Z,5.86
2022-10-04T01:31:12.126Z,5.90
2022-10-04T01:31:22.708Z,5.90
2022-10-04T01:31:33.156Z,5.90
2022-10-04T01:31:43.958Z,5.90
2022-10-04T01:31:54.211Z,5.91
2022-10-04T01:32:04.615Z,5.91
2022-10-04T01:32:15.133Z,5.90
2022-10-04T01:32:25.624Z,5.91
2022-10-04T01:32:36.134Z,5.91
2022-10-04T01:32:46.641Z,5.93
2022-10-04T01:32:57.146Z,5.93
2022-10-04T01:33:07.655Z,5.91
2022-10-04T01:33:18.166Z,5.93
2022-10-04T01:33:28.672Z,5.93
2022-10-04T01:33:39.188Z,5.94
2022-10-04T01:33:49.681Z,5.94
2022-10-04T01:34:00.198Z,5.93
2022-10-04T01:34:10.732Z,5.93
2022-10-04T01:34:21.206Z,5.93
2022-10-04T01:34:31.725Z,5.93
2022-10-04T01:34:42.217Z,5.91
2022-10-04T01:34:52.726Z,5.91
2022-10-04T01:35:03.231Z,5.90
2022-10-04T01:35:13.741Z,5.90
2022-10-04T01:35:24.245Z,5.90
2022-10-04T01:35:34.751Z,5.90
2022-10-04T01:35:45.258Z,5.90
2022-10-04T01:35:55.764Z,5.89
2022-10-04T01:36:06.266Z,5.86
2022-10-04T01:36:16.770Z,5.86
2022-10-04T01:36:27.278Z,5.85
2022-10-04T01:36:37.821Z,5.83
2022-10-04T01:36:48.294Z,5.83
2022-10-04T01:36:58.793Z,5.83
2022-10-04T01:37:09.304Z,5.82
2022-10-04T01:37:19.814Z,5.81
2022-10-04T01:37:30.313Z,5.81
2022-10-04T01:37:40.868Z,5.79
2022-10-04T01:37:51.330Z,5.79
2022-10-04T01:38:01.828Z,5.79
2022-10-04T01:38:12.334Z,5.78
2022-10-04T01:38:22.841Z,5.79
2022-10-04T01:38:33.348Z,5.79
2022-10-04T01:38:43.851Z,5.79
2022-10-04T01:38:54.356Z,5.79
2022-10-04T01:39:04.873Z,5.76
2022-10-04T01:39:15.368Z,5.79
2022-10-04T01:39:25.873Z,5.78
2022-10-04T01:39:36.378Z,5.78
2022-10-04T01:39:46.887Z,5.78
2022-10-04T01:39:57.389Z,5.78
2022-10-04T01:40:07.901Z,5.78
2022-10-04T01:40:18.435Z,5.78
2022-10-04T01:40:28.905Z,5.78
2022-10-04T01:40:39.410Z,5.79
2022-10-04T01:40:49.917Z,5.79
2022-10-04T01:41:00.423Z,5.78
2022-10-04T01:41:10.929Z,5.79
2022-10-04T01:41:21.433Z,5.78
2022-10-04T01:41:31.948Z,5.78
2022-10-04T01:41:42.709Z,5.79
2022-10-04T01:41:52.961Z,5.79
2022-10-04T01:42:03.486Z,5.81
2022-10-04T01:42:13.972Z,5.81
2022-10-04T01:42:24.481Z,5.81
2022-10-04T01:42:34.983Z,5.79
2022-10-04T01:42:45.493Z,5.81
2022-10-04T01:42:56.010Z,5.81
2022-10-04T01:43:06.496Z,5.81
2022-10-04T01:43:17.004Z,5.83
2022-10-04T01:43:27.510Z,5.85
2022-10-04T01:43:38.027Z,5.85
2022-10-04T01:43:48.517Z,5.86
2022-10-04T01:43:59.029Z,5.85
2022-10-04T01:44:09.538Z,5.85
2022-10-04T01:44:20.074Z,5.85
2022-10-04T01:44:30.546Z,5.85
2022-10-04T01:44:41.051Z,5.83
2022-10-04T01:44:51.555Z,5.83
2022-10-04T01:45:02.100Z,5.83
2022-10-04T01:45:12.565Z,5.83
2022-10-04T01:45:23.074Z,5.83
2022-10-04T01:45:33.576Z,5.85
2022-10-04T01:45:44.089Z,5.83
2022-10-04T01:45:54.640Z,5.83
2022-10-04T01:46:05.140Z,5.85
2022-10-04T01:46:15.709Z,5.83
2022-10-04T01:46:26.165Z,5.83
2022-10-04T01:46:36.751Z,5.82
2022-10-04T01:46:47.170Z,5.82
2022-10-04T01:46:57.626Z,5.82
2022-10-04T01:47:08.148Z,5.81
2022-10-04T01:47:18.635Z,5.82
2022-10-04T01:47:29.163Z,5.81
2022-10-04T01:47:39.653Z,5.81
2022-10-04T01:47:50.145Z,5.82
2022-10-04T01:48:00.650Z,5.81
2022-10-04T01:48:11.157Z,5.82
2022-10-04T01:48:21.668Z,5.81
2022-10-04T01:48:32.169Z,5.79
2022-10-04T01:48:42.673Z,5.82
2022-10-04T01:48:53.177Z,5.79
2022-10-04T01:49:03.680Z,5.78
2022-10-04T01:49:14.196Z,5.78
2022-10-04T01:49:24.698Z,5.78
2022-10-04T01:49:35.203Z,5.78
2022-10-04T01:49:45.713Z,5.81
2022-10-04T01:49:56.217Z,5.81
2022-10-04T01:50:07.694Z,5.81
2022-10-04T01:50:17.224Z,5.81
2022-10-04T01:50:27.733Z,5.79
2022-10-04T01:50:38.238Z,5.79
2022-10-04T01:50:48.734Z,5.81
2022-10-04T01:50:59.287Z,5.81
2022-10-04T01:51:09.745Z,5.81
2022-10-04T01:51:20.263Z,5.81
2022-10-04T01:51:30.767Z,5.81
2022-10-04T01:51:41.433Z,5.79
2022-10-04T01:51:51.771Z,5.79
2022-10-04T01:52:02.274Z,5.81
2022-10-04T01:52:12.777Z,5.79
2022-10-04T01:52:23.303Z,5.79
2022-10-04T01:52:33.787Z,5.79
2022-10-04T01:52:44.312Z,5.79
2022-10-04T01:52:54.800Z,5.79
2022-10-04T01:53:05.304Z,5.79
2022-10-04T01:53:15.807Z,5.81
2022-10-04T01:53:26.321Z,5.79
2022-10-04T01:53:36.830Z,5.81
2022-10-04T01:53:47.338Z,5.79
2022-10-04T01:53:57.830Z,5.79
2022-10-04T01:54:08.337Z,5.81
2022-10-04T01:54:18.852Z,5.81
2022-10-04T01:54:29.355Z,5.79
2022-10-04T01:54:39.857Z,5.82
2022-10-04T01:54:50.373Z,5.81
2022-10-04T01:55:00.876Z,5.79
2022-10-04T01:55:11.384Z,5.82
2022-10-04T01:55:21.884Z,5.81
2022-10-04T01:55:32.385Z,5.81
2022-10-04T01:55:42.884Z,5.81
2022-10-04T01:55:53.407Z,5.81
2022-10-04T01:56:03.928Z,5.81
2022-10-04T01:56:14.404Z,5.82
2022-10-04T01:56:24.904Z,5.81
2022-10-04T01:56:35.423Z,5.81
2022-10-04T01:56:45.915Z,5.82
2022-10-04T01:56:56.421Z,5.79
2022-10-04T01:57:06.922Z,5.81
2022-10-04T01:57:17.432Z,5.81
2022-10-04T01:57:27.942Z,5.81
2022-10-04T01:57:38.446Z,5.81
2022-10-04T01:57:48.987Z,5.79
2022-10-04T01:57:59.471Z,5.81
2022-10-04T01:58:09.957Z,5.79
2022-10-04T01:58:20.458Z,5.79
2022-10-04T01:58:30.967Z,5.79
2022-10-04T01:58:41.486Z,5.81
2022-10-04T01:58:51.990Z,5.79
2022-10-04T01:59:02.494Z,5.81
2022-10-04T01:59:12.992Z,5.81
2022-10-04T01:59:23.501Z,5.78
2022-10-04T01:59:34.001Z,5.79
2022-10-04T01:59:44.514Z,5.79
2022-10-04T01:59:55.027Z,5.79
2022-10-04T02:00:05.524Z,5.79
2022-10-04T02:00:16.037Z,5.78
2022-10-04T02:00:26.540Z,5.79
2022-10-04T02:00:37.040Z,5.79
2022-10-04T02:00:47.610Z,5.79
2022-10-04T02:00:58.111Z,5.82
2022-10-04T02:01:08.638Z,5.82
2022-10-04T02:01:19.083Z,5.83
2022-10-04T02:01:29.639Z,5.86
2022-10-04T02:01:40.267Z,5.86
2022-10-04T02:01:50.580Z,5.89
2022-10-04T02:02:01.092Z,5.89
2022-10-04T02:02:11.593Z,5.89
2022-10-04T02:02:22.108Z,5.90
2022-10-04T02:02:32.614Z,5.90
2022-10-04T02:02:43.111Z,5.91
2022-10-04T02:02:53.629Z,5.90
2022-10-04T02:03:04.120Z,5.89
2022-10-04T02:03:14.619Z,5.90
2022-10-04T02:03:25.128Z,5.89
2022-10-04T02:03:35.689Z,5.89
2022-10-04T02:03:46.253Z,5.86
2022-10-04T02:03:56.650Z,5.86
2022-10-04T02:04:07.151Z,5.85
2022-10-04T02:04:22.043Z,5.83
2022-10-04T02:04:28.179Z,5.83
2022-10-04T02:04:38.826Z,5.83
2022-10-04T02:04:49.270Z,5.85
2022-10-04T02:04:59.715Z,5.82
2022-10-04T02:05:10.196Z,5.82
2022-10-04T02:05:20.695Z,5.82
2022-10-04T02:05:31.205Z,5.82
2022-10-04T02:05:41.709Z,5.81
2022-10-04T02:05:52.215Z,5.79
2022-10-04T02:06:02.715Z,5.78
2022-10-04T02:06:13.226Z,5.79
2022-10-04T02:06:23.731Z,5.79
2022-10-04T02:06:34.241Z,5.76
2022-10-04T02:06:44.742Z,5.76
2022-10-04T02:06:55.244Z,5.76
2022-10-04T02:07:05.780Z,5.76
2022-10-04T02:07:16.254Z,5.75
2022-10-04T02:07:26.757Z,5.74
2022-10-04T02:07:37.272Z,5.75
2022-10-04T02:07:47.776Z,5.72
2022-10-04T02:07:58.279Z,5.71
2022-10-04T02:08:08.782Z,5.72
2022-10-04T02:08:19.289Z,5.71
2022-10-04T02:08:29.794Z,5.71
2022-10-04T02:08:40.301Z,5.67
2022-10-04T02:08:50.830Z,5.67
2022-10-04T02:09:01.315Z,5.65
2022-10-04T02:09:11.819Z,5.65
2022-10-04T02:09:22.326Z,5.63
2022-10-04T02:09:32.835Z,5.64
2022-10-04T02:09:43.332Z,5.63
2022-10-04T02:09:53.843Z,5.64
2022-10-04T02:10:04.335Z,5.61
2022-10-04T02:10:14.859Z,5.60
2022-10-04T02:10:25.350Z,5.61
2022-10-04T02:10:39.736Z,5.60
2022-10-04T02:10:47.361Z,5.58
2022-10-04T02:10:56.865Z,5.58
2022-10-04T02:11:07.370Z,5.57
2022-10-04T02:11:17.876Z,5.57
2022-10-04T02:11:28.418Z,5.57
2022-10-04T02:11:38.887Z,5.56
2022-10-04T02:11:49.396Z,5.56
2022-10-04T02:11:59.916Z,5.56
2022-10-04T02:12:10.408Z,5.56
2022-10-04T02:12:20.906Z,5.56
2022-10-04T02:12:31.491Z,5.54
2022-10-04T02:12:41.921Z,5.54
2022-10-04T02:12:52.432Z,5.51
2022-10-04T02:13:02.957Z,5.51
2022-10-04T02:13:13.437Z,5.51
2022-10-04T02:13:23.945Z,5.49
2022-10-04T02:13:34.453Z,5.48
2022-10-04T02:13:44.953Z,5.49
2022-10-04T02:13:55.466Z,5.48
2022-10-04T02:14:05.963Z,5.46
2022-10-04T02:14:16.474Z,5.46
2022-10-04T02:14:26.973Z,5.46
2022-10-04T02:14:37.505Z,5.45
2022-10-04T02:14:47.982Z,5.43
2022-10-04T02:14:58.484Z,5.45
2022-10-04T02:15:09.024Z,5.45
2022-10-04T02:15:19.507Z,5.45
2022-10-04T02:15:30.004Z,5.43
2022-10-04T02:15:40.582Z,5.43
2022-10-04T02:15:51.049Z,5.45
2022-10-04T02:16:01.611Z,5.43
2022-10-04T02:16:12.157Z,5.43
2022-10-04T02:16:22.653Z,5.42
2022-10-04T02:16:33.088Z,5.42
2022-10-04T02:16:43.550Z,5.43
2022-10-04T02:16:54.051Z,5.42
2022-10-04T02:17:04.553Z,5.42
2022-10-04T02:17:15.051Z,5.40
2022-10-04T02:17:25.558Z,5.40
2022-10-04T02:17:36.074Z,5.42
2022-10-04T02:17:46.563Z,5.40
2022-10-04T02:17:57.066Z,5.40
2022-10-04T02:18:07.574Z,5.39
2022-10-04T02:18:18.080Z,5.40
2022-10-04T02:18:28.594Z,5.40
2022-10-04T02:18:39.093Z,5.39
2022-10-04T02:18:49.598Z,5.40
2022-10-04T02:19:00.106Z,5.38
2022-10-04T02:19:10.621Z,5.39
2022-10-04T02:19:21.115Z,5.39
2022-10-04T02:19:31.631Z,5.39
2022-10-04T02:19:42.159Z,5.38
2022-10-04T02:19:52.629Z,5.39